createdAt,value
2022-09-15T00:00:23.430Z,0.93
2022-09-15T00:02:51.587Z,1.40
2022-09-15T00:05:19.435Z,0.80
2022-09-15T00:07:47.720Z,0.90
2022-09-15T00:10:15.336Z,0.90
2022-09-15T00:12:44.798Z,0.83
2022-09-15T00:15:14.614Z,0.83
2022-09-15T00:17:43.058Z,0.83
2022-09-15T00:20:11.666Z,2.27
2022-09-15T00:22:40.290Z,1.70
2022-09-15T00:25:08.069Z,1.20
2022-09-15T00:27:36.418Z,1.60
2022-09-15T00:30:06.792Z,0.60
2022-09-15T00:32:35.295Z,1.10
2022-09-15T00:35:03.118Z,0.90
2022-09-15T00:37:30.927Z,1.20
2022-09-15T00:39:58.565Z,1.47
2022-09-15T00:42:26.918Z,0.80
2022-09-15T00:44:57.241Z,0.73
2022-09-15T00:47:30.238Z,0.47
2022-09-15T00:50:02.953Z,1.37
2022-09-15T00:52:37.326Z,1.07
2022-09-15T00:55:08.224Z,0.53
2022-09-15T00:57:42.481Z,2.10
2022-09-15T01:00:13.778Z,0.80
2022-09-15T01:02:45.639Z,0.67
2022-09-15T01:05:16.568Z,1.13
2022-09-15T01:07:48.903Z,1.70
2022-09-15T01:10:20.205Z,0.87
2022-09-15T01:12:48.418Z,0.80
2022-09-15T01:15:16.546Z,0.87
2022-09-15T01:17:58.921Z,0.70
2022-09-15T01:21:09.454Z,0.83
2022-09-15T01:24:09.002Z,0.70
2022-09-15T01:27:09.786Z,1.10
2022-09-15T01:30:06.707Z,0.70
2022-09-15T01:33:07.209Z,0.97
2022-09-15T01:35:48.692Z,1.00
2022-09-15T01:38:24.982Z,0.60
2022-09-15T01:40:58.101Z,0.40
2022-09-15T01:43:29.718Z,0.60
2022-09-15T01:46:00.996Z,0.63
2022-09-15T01:48:31.062Z,0.90
2022-09-15T01:51:02.218Z,0.60
2022-09-15T01:53:31.073Z,0.90
2022-09-15T01:56:05.075Z,1.43
2022-09-15T01:58:34.025Z,0.70
2022-09-15T02:01:06.993Z,1.10
2022-09-15T02:03:44.999Z,0.57
2022-09-15T02:06:20.258Z,0.93
2022-09-15T02:08:52.968Z,0.50
2022-09-15T02:11:26.553Z,0.60
2022-09-15T02:14:01.022Z,0.70
2022-09-15T02:16:34.789Z,1.03
2022-09-15T02:19:31.511Z,1.73
2022-09-15T02:22:08.167Z,0.70
2022-09-15T02:24:40.960Z,0.77
2022-09-15T02:27:15.586Z,1.60
2022-09-15T02:29:46.112Z,1.57
2022-09-15T02:32:18.254Z,0.70
2022-09-15T02:34:51.402Z,0.37
2022-09-15T02:37:21.183Z,0.67
2022-09-15T02:39:57.951Z,1.63
2022-09-15T02:42:26.973Z,1.33
2022-09-15T02:44:54.757Z,0.60
2022-09-15T02:47:25.135Z,0.50
2022-09-15T02:49:53.884Z,0.70
2022-09-15T02:52:22.561Z,1.57
2022-09-15T02:54:50.489Z,1.27
2022-09-15T02:57:18.782Z,0.77
2022-09-15T03:00:04.620Z,0.97
2022-09-15T03:02:34.288Z,0.50
2022-09-15T03:05:01.862Z,1.70
2022-09-15T03:07:30.565Z,0.40
2022-09-15T03:09:58.300Z,0.70
2022-09-15T03:12:26.459Z,1.33
2022-09-15T03:14:54.048Z,0.20
2022-09-15T03:17:21.648Z,0.30
2022-09-15T03:19:50.936Z,0.50
2022-09-15T03:22:18.801Z,0.60
2022-09-15T03:24:46.388Z,0.63
2022-09-15T03:27:14.138Z,0.43
2022-09-15T03:29:41.764Z,0.53
2022-09-15T03:32:09.346Z,0.70
2022-09-15T03:34:36.934Z,0.53
2022-09-15T03:37:07.190Z,0.30
2022-09-15T03:39:34.831Z,0.40
2022-09-15T03:42:03.230Z,0.47
2022-09-15T03:44:30.851Z,0.37
2022-09-15T03:46:59.086Z,0.73
2022-09-15T03:49:26.714Z,0.33
2022-09-15T03:51:54.815Z,0.67
2022-09-15T03:54:23.719Z,0.43
2022-09-15T03:56:52.047Z,1.53
2022-09-15T03:59:21.312Z,1.23
2022-09-15T04:01:50.476Z,0.30
2022-09-15T04:04:18.571Z,0.50
2022-09-15T04:06:46.324Z,0.30
2022-09-15T04:09:13.976Z,0.93
2022-09-15T04:11:43.579Z,0.43
2022-09-15T04:14:11.832Z,0.20
2022-09-15T04:16:39.836Z,0.53
2022-09-15T04:19:07.472Z,1.03
2022-09-15T04:21:35.872Z,0.70
2022-09-15T04:24:04.725Z,1.00
2022-09-15T04:26:34.954Z,0.37
2022-09-15T04:29:06.043Z,0.20
2022-09-15T04:31:34.702Z,0.70
2022-09-15T04:34:02.384Z,0.33
2022-09-15T04:36:31.658Z,0.30
2022-09-15T04:38:59.904Z,0.30
2022-09-15T04:41:28.371Z,0.30
2022-09-15T04:43:56.612Z,0.37
2022-09-15T04:46:25.646Z,0.50
2022-09-15T04:48:54.033Z,0.60
2022-09-15T04:51:23.017Z,1.13
2022-09-15T04:53:51.683Z,0.13
2022-09-15T04:56:20.944Z,0.30
2022-09-15T04:58:51.735Z,1.53
2022-09-15T05:01:21.860Z,0.33
2022-09-15T05:03:51.555Z,0.50
2022-09-15T05:06:22.641Z,0.27
2022-09-15T05:08:51.706Z,0.30
2022-09-15T05:11:20.723Z,0.30
2022-09-15T05:13:49.206Z,0.30
2022-09-15T05:16:19.649Z,0.10
2022-09-15T05:18:49.311Z,0.37
2022-09-15T05:21:21.130Z,0.40
2022-09-15T05:23:49.207Z,0.43
2022-09-15T05:26:18.692Z,0.20
2022-09-15T05:28:46.297Z,0.97
2022-09-15T05:31:21.438Z,0.20
2022-09-15T05:33:50.568Z,0.40
2022-09-15T05:36:21.202Z,0.20
2022-09-15T05:38:48.844Z,0.20
2022-09-15T05:41:18.624Z,0.40
2022-09-15T05:43:47.625Z,0.30
2022-09-15T05:46:16.462Z,0.23
2022-09-15T05:49:08.684Z,0.20
2022-09-15T05:51:37.872Z,0.77
2022-09-15T05:54:05.896Z,0.40
2022-09-15T05:56:34.326Z,0.40
2022-09-15T05:59:01.944Z,0.20
2022-09-15T06:01:31.197Z,0.30
2022-09-15T06:03:59.141Z,0.40
2022-09-15T06:06:28.059Z,0.20
2022-09-15T06:08:59.310Z,0.97
2022-09-15T06:11:29.879Z,0.53
2022-09-15T06:14:00.050Z,0.23
2022-09-15T06:16:28.134Z,0.27
2022-09-15T06:18:55.767Z,0.30
2022-09-15T06:21:25.639Z,0.20
2022-09-15T06:23:54.795Z,1.40
2022-09-15T06:26:25.120Z,0.30
2022-09-15T06:28:54.752Z,0.53
2022-09-15T06:31:23.959Z,0.30
2022-09-15T06:33:53.382Z,1.07
2022-09-15T06:36:22.887Z,0.40
2022-09-15T06:38:51.646Z,0.30
2022-09-15T06:41:20.533Z,0.23
2022-09-15T06:43:50.044Z,0.60
2022-09-15T06:46:20.031Z,0.30
2022-09-15T06:48:48.821Z,0.30
2022-09-15T06:51:18.173Z,0.20
2022-09-15T06:53:47.005Z,1.03
2022-09-15T06:56:16.083Z,0.30
2022-09-15T06:58:45.371Z,0.40
2022-09-15T07:01:15.778Z,0.37
2022-09-15T07:03:45.118Z,0.30
2022-09-15T07:06:13.084Z,0.40
2022-09-15T07:08:41.944Z,0.37
2022-09-15T07:11:10.764Z,0.30
2022-09-15T07:13:39.687Z,0.60
2022-09-15T07:16:09.601Z,0.53
2022-09-15T07:18:43.192Z,0.90
2022-09-15T07:21:14.044Z,0.20
2022-09-15T07:23:42.340Z,0.63
2022-09-15T07:26:12.391Z,0.30
2022-09-15T07:28:42.360Z,0.87
2022-09-15T07:31:12.278Z,0.37
2022-09-15T07:33:42.256Z,0.40
2022-09-15T07:36:11.274Z,0.30
2022-09-15T07:38:41.931Z,0.37
2022-09-15T07:41:12.004Z,0.47
2022-09-15T07:43:40.678Z,0.50
2022-09-15T07:46:08.365Z,0.37
2022-09-15T07:48:36.740Z,0.70
2022-09-15T07:51:05.992Z,0.63
2022-09-15T07:53:34.074Z,0.30
2022-09-15T07:56:01.675Z,1.60
2022-09-15T07:58:30.231Z,0.40
2022-09-15T08:01:02.725Z,0.30
2022-09-15T08:03:30.707Z,0.20
2022-09-15T08:05:59.887Z,0.47
2022-09-15T08:08:29.497Z,0.83
2022-09-15T08:10:58.372Z,0.40
2022-09-15T08:13:26.373Z,0.23
2022-09-15T08:15:54.409Z,0.50
2022-09-15T08:18:22.107Z,0.30
2022-09-15T08:20:49.702Z,0.30
2022-09-15T08:23:18.035Z,0.40
2022-09-15T08:25:47.649Z,0.50
2022-09-15T08:28:15.234Z,0.50
2022-09-15T08:30:43.135Z,0.60
2022-09-15T08:33:11.371Z,0.33
2022-09-15T08:35:39.368Z,1.07
2022-09-15T08:38:06.978Z,0.30
2022-09-15T08:40:38.073Z,0.70
2022-09-15T08:43:14.955Z,0.30
2022-09-15T08:45:48.675Z,0.50
2022-09-15T08:48:21.217Z,0.30
2022-09-15T08:50:52.261Z,0.30
2022-09-15T08:53:24.506Z,0.30
2022-09-15T08:55:55.494Z,0.40
2022-09-15T08:58:26.392Z,0.60
2022-09-15T09:01:04.545Z,0.40
2022-09-15T09:03:45.194Z,0.20
2022-09-15T09:06:25.804Z,0.60
2022-09-15T09:09:04.293Z,0.30
2022-09-15T09:11:49.867Z,0.60
2022-09-15T09:14:27.853Z,0.50
2022-09-15T09:17:10.745Z,0.60
2022-09-15T09:19:56.338Z,0.20
2022-09-15T09:22:27.651Z,1.40
2022-09-15T09:24:58.824Z,0.20
2022-09-15T09:27:30.146Z,0.33
2022-09-15T09:30:03.917Z,0.27
2022-09-15T09:32:40.253Z,1.03
2022-09-15T09:35:21.513Z,0.40
2022-09-15T09:37:52.149Z,0.40
2022-09-15T09:40:21.022Z,0.87
2022-09-15T09:42:49.973Z,0.77
2022-09-15T09:45:20.568Z,0.20
2022-09-15T09:47:48.453Z,0.20
2022-09-15T09:50:38.675Z,0.47
2022-09-15T09:53:28.821Z,0.40
2022-09-15T09:56:16.236Z,0.20
2022-09-15T09:58:44.525Z,0.33
2022-09-15T10:01:16.062Z,0.57
2022-09-15T10:03:45.190Z,0.40
2022-09-15T10:06:15.595Z,0.30
2022-09-15T10:08:55.344Z,0.70
2022-09-15T10:11:24.058Z,0.77
2022-09-15T10:13:53.945Z,0.83
2022-09-15T10:16:24.189Z,0.30
2022-09-15T10:18:54.545Z,0.90
2022-09-15T10:21:25.227Z,0.60
2022-09-15T10:23:52.983Z,0.50
2022-09-15T10:26:24.211Z,0.50
2022-09-15T10:29:15.738Z,0.50
2022-09-15T10:31:46.040Z,0.50
2022-09-15T10:34:26.918Z,0.97
2022-09-15T10:37:03.292Z,0.53
2022-09-15T10:39:39.417Z,0.50
2022-09-15T10:42:18.276Z,0.30
2022-09-15T10:44:56.135Z,0.67
2022-09-15T10:47:38.065Z,0.73
2022-09-15T10:50:15.240Z,0.33
2022-09-15T10:52:57.857Z,0.50
2022-09-15T10:55:51.762Z,0.60
2022-09-15T10:58:39.931Z,0.30
2022-09-15T11:01:33.234Z,0.33
2022-09-15T11:04:32.500Z,1.07
2022-09-15T11:07:08.549Z,0.50
2022-09-15T11:09:43.041Z,0.67
2022-09-15T11:12:29.396Z,0.60
2022-09-15T11:15:17.066Z,1.07
2022-09-15T11:17:59.832Z,0.67
2022-09-15T11:20:44.950Z,0.90
2022-09-15T11:23:19.163Z,0.53
2022-09-15T11:25:52.118Z,0.63
2022-09-15T11:28:24.687Z,0.60
2022-09-15T11:30:57.096Z,0.43
2022-09-15T11:33:32.330Z,0.50
2022-09-15T11:36:07.740Z,1.13
2022-09-15T11:38:43.371Z,0.40
2022-09-15T11:41:20.351Z,0.40
2022-09-15T11:44:06.116Z,0.50
2022-09-15T11:46:57.815Z,0.70
2022-09-15T11:49:30.975Z,0.50
2022-09-15T11:52:08.067Z,0.90
2022-09-15T11:54:40.748Z,0.30
2022-09-15T11:57:19.669Z,0.43
2022-09-15T11:59:52.948Z,0.43
2022-09-15T12:02:27.304Z,0.50
2022-09-15T12:05:07.153Z,0.50
2022-09-15T12:07:42.551Z,0.33
2022-09-15T12:10:16.216Z,0.30
2022-09-15T12:12:45.671Z,0.40
2022-09-15T12:15:19.475Z,0.40
2022-09-15T12:17:53.219Z,1.53
2022-09-15T12:20:29.720Z,0.30
2022-09-15T12:23:06.065Z,0.50
2022-09-15T12:25:41.066Z,0.43
2022-09-15T12:28:38.453Z,0.33
2022-09-15T12:31:26.871Z,1.63
2022-09-15T12:33:56.160Z,0.77
2022-09-15T12:36:45.670Z,0.30
2022-09-15T12:39:28.853Z,0.50
2022-09-15T12:42:06.744Z,0.33
2022-09-15T12:44:37.872Z,0.47
2022-09-15T12:47:17.749Z,0.47
2022-09-15T12:49:48.638Z,0.40
2022-09-15T12:52:17.917Z,0.77
2022-09-15T12:54:54.015Z,0.37
2022-09-15T12:57:27.266Z,0.30
2022-09-15T13:00:34.734Z,0.63
2022-09-15T13:03:04.238Z,0.30
2022-09-15T13:06:16.480Z,0.40
2022-09-15T13:08:47.399Z,0.30
2022-09-15T13:11:21.803Z,0.40
2022-09-15T13:13:53.970Z,0.57
2022-09-15T13:16:28.268Z,0.30
2022-09-15T13:19:07.082Z,0.60
2022-09-15T13:21:39.463Z,0.63
2022-09-15T13:24:15.554Z,0.30
2022-09-15T13:26:48.657Z,0.20
2022-09-15T13:29:17.890Z,0.40
2022-09-15T13:31:54.650Z,1.90
2022-09-15T13:35:08.626Z,0.37
2022-09-15T13:38:12.171Z,0.50
2022-09-15T13:41:13.669Z,1.33
2022-09-15T13:44:06.683Z,1.33
2022-09-15T13:46:48.107Z,0.60
2022-09-15T13:49:39.651Z,0.50
2022-09-15T13:52:22.971Z,2.83
2022-09-15T13:55:11.163Z,0.70
2022-09-15T14:00:34.153Z,0.80
2022-09-15T14:03:06.734Z,0.50
2022-09-15T14:05:36.375Z,0.30
2022-09-15T14:08:07.411Z,1.87
2022-09-15T14:10:42.936Z,0.83
2022-09-15T14:13:15.064Z,1.43
2022-09-15T14:15:57.662Z,0.63
2022-09-15T14:18:25.932Z,1.10
2022-09-15T14:21:01.916Z,1.07
2022-09-15T14:23:30.544Z,1.47
2022-09-15T14:26:01.086Z,0.53
2022-09-15T14:28:32.209Z,0.60
2022-09-15T14:31:02.592Z,0.80
2022-09-15T14:33:38.145Z,0.90
2022-09-15T14:36:14.588Z,0.50
2022-09-15T14:38:42.655Z,0.60
2022-09-15T14:41:19.826Z,0.83
2022-09-15T14:43:47.522Z,1.23
2022-09-15T14:46:19.013Z,0.63
2022-09-15T14:48:46.682Z,0.83
2022-09-15T14:51:20.014Z,0.70
2022-09-15T14:53:50.732Z,1.07
2022-09-15T14:56:21.723Z,1.70
2022-09-15T14:58:53.537Z,1.07
2022-09-15T15:01:27.724Z,1.57
2022-09-15T15:04:00.681Z,1.20
2022-09-15T15:06:35.134Z,0.63
2022-09-15T15:09:08.172Z,0.30
2022-09-15T15:11:36.470Z,0.40
2022-09-15T15:14:08.171Z,0.67
2022-09-15T15:16:37.365Z,0.33
2022-09-15T15:19:05.327Z,0.20
2022-09-15T15:21:41.603Z,0.13
2022-09-15T15:24:17.757Z,0.10
2022-09-15T15:26:46.690Z,0.10
2022-09-15T15:29:42.941Z,0.10
2022-09-15T15:32:17.344Z,0.10
2022-09-15T15:34:52.882Z,0.10
2022-09-15T15:37:26.452Z,0.10
2022-09-15T15:39:56.499Z,0.30
2022-09-15T15:42:25.056Z,0.30
2022-09-15T15:45:22.311Z,0.17
2022-09-15T15:47:51.459Z,0.20
2022-09-15T15:50:21.740Z,0.30
2022-09-15T15:52:50.463Z,0.50
2022-09-15T15:55:20.075Z,0.40
2022-09-15T15:57:51.087Z,0.97
2022-09-15T16:00:22.292Z,0.70
2022-09-15T16:02:52.731Z,0.70
2022-09-15T16:05:22.114Z,0.40
2022-09-15T16:07:52.504Z,0.83
2022-09-15T16:10:23.755Z,1.23
2022-09-15T16:12:52.036Z,1.27
2022-09-15T16:15:22.217Z,1.47
2022-09-15T16:17:50.263Z,0.97
2022-09-15T16:20:20.529Z,1.50
2022-09-15T16:22:48.324Z,1.40
2022-09-15T16:25:19.713Z,1.30
2022-09-15T16:27:47.334Z,1.03
2022-09-15T16:30:15.466Z,1.53
2022-09-15T16:32:43.092Z,1.13
2022-09-15T16:35:27.950Z,1.13
2022-09-15T16:37:55.930Z,2.50
2022-09-15T16:40:23.657Z,2.63
2022-09-15T16:42:51.617Z,1.13
2022-09-15T16:45:28.805Z,0.83
2022-09-15T16:47:56.564Z,1.80
2022-09-15T16:50:26.102Z,1.17
2022-09-15T16:52:53.821Z,0.97
2022-09-15T16:55:26.172Z,1.60
2022-09-15T16:57:53.884Z,1.43
2022-09-15T17:00:21.842Z,1.43
2022-09-15T17:02:49.561Z,1.40
2022-09-15T17:05:21.254Z,1.77
2022-09-15T17:07:50.190Z,1.30
2022-09-15T17:10:18.012Z,1.10
2022-09-15T17:12:45.649Z,1.00
2022-09-15T17:15:23.671Z,1.03
2022-09-15T17:17:51.572Z,1.10
2022-09-15T17:20:19.886Z,1.73
2022-09-15T17:22:48.802Z,0.83
2022-09-15T17:25:26.760Z,0.87
2022-09-15T17:27:54.662Z,1.67
2022-09-15T17:30:25.152Z,1.33
2022-09-15T17:32:53.146Z,2.00
2022-09-15T17:35:24.463Z,1.20
2022-09-15T17:37:52.833Z,1.17
2022-09-15T17:40:22.479Z,1.20
2022-09-15T17:42:50.144Z,1.00
2022-09-15T17:45:22.124Z,1.17
2022-09-15T17:47:50.288Z,1.30
2022-09-15T17:50:19.178Z,0.90
2022-09-15T17:52:47.477Z,0.70
2022-09-15T17:55:19.081Z,1.07
2022-09-15T17:57:49.144Z,0.80
2022-09-15T18:00:18.863Z,1.40
2022-09-15T18:02:50.129Z,1.57
2022-09-15T18:05:20.656Z,1.17
2022-09-15T18:07:48.331Z,0.80
2022-09-15T18:10:17.738Z,1.00
2022-09-15T18:12:48.379Z,1.20
2022-09-15T18:15:22.317Z,1.40
2022-09-15T18:17:50.444Z,1.57
2022-09-15T18:20:21.839Z,1.30
2022-09-15T18:22:50.510Z,1.67
2022-09-15T18:25:21.458Z,1.30
2022-09-15T18:27:49.309Z,2.40
2022-09-15T18:30:17.936Z,1.77
2022-09-15T18:32:47.963Z,1.37
2022-09-15T18:35:18.853Z,1.87
2022-09-15T18:37:47.016Z,1.87
2022-09-15T18:40:16.847Z,1.00
2022-09-15T18:42:45.170Z,2.10
2022-09-15T18:45:14.947Z,2.13
2022-09-15T18:47:43.204Z,1.60
2022-09-15T18:50:14.163Z,2.33
2022-09-15T18:52:42.344Z,3.47
2022-09-15T18:55:13.552Z,1.87
2022-09-15T18:57:41.595Z,3.00
2022-09-15T19:00:13.026Z,2.47
2022-09-15T19:02:40.838Z,2.23
2022-09-15T19:05:11.410Z,1.67
2022-09-15T19:07:40.379Z,2.10
2022-09-15T19:10:08.611Z,2.33
2022-09-15T19:12:36.830Z,1.73
2022-09-15T19:15:10.597Z,2.23
2022-09-15T19:17:39.615Z,2.00
2022-09-15T19:20:09.712Z,2.70
2022-09-15T19:22:37.916Z,1.83
2022-09-15T19:25:08.615Z,2.03
2022-09-15T19:27:36.750Z,1.93
2022-09-15T19:30:05.052Z,1.40
2022-09-15T19:32:33.822Z,1.57
2022-09-15T19:35:02.444Z,3.10
2022-09-15T19:37:30.055Z,2.77
2022-09-15T19:39:58.043Z,2.50
2022-09-15T19:42:27.019Z,2.97
2022-09-15T19:44:55.050Z,3.40
2022-09-15T19:47:22.676Z,3.13
2022-09-15T19:49:52.115Z,3.20
2022-09-15T19:52:19.882Z,2.73
2022-09-15T19:54:48.310Z,2.60
2022-09-15T19:57:15.937Z,2.87
2022-09-15T19:59:45.655Z,2.73
2022-09-15T20:02:13.520Z,2.90
2022-09-15T20:04:41.488Z,3.20
2022-09-15T20:07:09.455Z,3.03
2022-09-15T20:09:37.306Z,2.53
2022-09-15T20:12:05.887Z,2.30
2022-09-15T20:14:33.497Z,2.10
2022-09-15T20:17:03.212Z,2.07
2022-09-15T20:19:31.097Z,3.83
2022-09-15T20:21:58.715Z,3.80
2022-09-15T20:24:26.312Z,2.20
2022-09-15T20:26:54.484Z,1.70
2022-09-15T20:29:23.708Z,2.70
2022-09-15T20:31:52.284Z,2.80
2022-09-15T20:34:21.239Z,1.80
2022-09-15T20:36:49.336Z,2.27
2022-09-15T20:39:19.377Z,3.63
2022-09-15T20:41:46.990Z,2.77
2022-09-15T20:44:15.357Z,3.07
2022-09-15T20:46:44.422Z,2.63
2022-09-15T20:49:12.475Z,2.17
2022-09-15T20:51:42.253Z,2.60
2022-09-15T20:54:11.296Z,2.63
2022-09-15T20:56:39.796Z,2.93
2022-09-15T20:59:10.255Z,2.80
2022-09-15T21:01:40.188Z,3.20
2022-09-15T21:04:09.418Z,2.67
2022-09-15T21:06:37.983Z,2.10
2022-09-15T21:09:07.883Z,1.80
2022-09-15T21:11:36.427Z,3.80
2022-09-15T21:14:04.725Z,3.27
2022-09-15T21:16:33.781Z,3.43
2022-09-15T21:19:01.889Z,2.57
2022-09-15T21:21:32.110Z,2.57
2022-09-15T21:24:03.520Z,1.50
2022-09-15T21:26:34.764Z,2.53
2022-09-15T21:29:02.901Z,3.23
2022-09-15T21:31:33.360Z,2.43
2022-09-15T21:34:01.353Z,2.03
2022-09-15T21:36:30.990Z,2.03
2022-09-15T21:38:59.999Z,2.80
2022-09-15T21:41:29.679Z,2.27
2022-09-15T21:44:00.607Z,2.60
2022-09-15T21:46:30.909Z,2.20
2022-09-15T21:48:59.968Z,1.83
2022-09-15T21:51:29.396Z,2.23
2022-09-15T21:53:58.582Z,2.63
2022-09-15T21:56:28.351Z,1.70
2022-09-15T21:58:56.149Z,1.50
2022-09-15T22:01:26.789Z,4.20
2022-09-15T22:03:56.456Z,1.90
2022-09-15T22:06:27.587Z,1.90
2022-09-15T22:08:55.785Z,1.70
2022-09-15T22:11:24.383Z,1.90
2022-09-15T22:13:52.045Z,2.33
2022-09-15T22:16:22.422Z,2.47
2022-09-15T22:18:52.407Z,2.10
2022-09-15T22:21:22.826Z,2.80
2022-09-15T22:23:52.212Z,2.20
2022-09-15T22:26:22.022Z,2.87
2022-09-15T22:28:49.983Z,2.53
2022-09-15T22:31:19.839Z,1.73
2022-09-15T22:33:47.826Z,3.10
2022-09-15T22:36:19.353Z,3.37
2022-09-15T22:38:47.688Z,2.70
2022-09-15T22:41:17.806Z,3.23
2022-09-15T22:43:48.958Z,2.43
2022-09-15T22:46:18.261Z,2.70
2022-09-15T22:48:45.992Z,4.10
2022-09-15T22:51:14.602Z,2.93
2022-09-15T22:53:43.721Z,3.60
2022-09-15T22:56:15.115Z,3.80
2022-09-15T22:58:44.624Z,4.13
2022-09-15T23:01:14.406Z,3.27
2022-09-15T23:03:42.354Z,3.33
2022-09-15T23:06:11.096Z,4.63
2022-09-15T23:08:38.727Z,4.97
2022-09-15T23:11:10.165Z,5.13
2022-09-15T23:13:38.470Z,6.33
2022-09-15T23:16:07.751Z,4.83
2022-09-15T23:18:35.935Z,4.80
2022-09-15T23:21:07.580Z,4.83
2022-09-15T23:23:36.236Z,4.90
2022-09-15T23:26:06.690Z,5.10
2022-09-15T23:28:35.688Z,6.00
2022-09-15T23:31:03.604Z,5.77
2022-09-15T23:33:32.171Z,4.80
2022-09-15T23:35:59.939Z,4.20
2022-09-15T23:38:28.239Z,4.33
2022-09-15T23:40:55.847Z,4.57
2022-09-15T23:43:24.230Z,5.10
2022-09-15T23:45:53.564Z,4.73
2022-09-15T23:48:22.863Z,4.73
2022-09-15T23:50:50.675Z,4.00
2022-09-15T23:53:18.518Z,3.93
2022-09-15T23:55:46.708Z,3.43
2022-09-15T23:58:14.994Z,4.20
